createdAt,value
2018-08-04T00:01:08.377Z,100158.42
2018-08-04T00:03:38.981Z,100157.06
2018-08-04T00:06:12.236Z,100155.45
2018-08-04T00:08:42.603Z,100157.91
2018-08-04T00:11:32.375Z,100156.25
2018-08-04T00:14:03.351Z,100156.56
2018-08-04T00:16:33.905Z,100156.29
2018-08-04T00:19:24.603Z,100151.15
2018-08-04T00:21:55.042Z,100153.33
2018-08-04T00:24:25.508Z,100148.98
2018-08-04T00:26:55.922Z,100149.48
2018-08-04T00:29:26.347Z,100145.17
2018-08-04T00:31:56.674Z,100152.81
2018-08-04T00:34:27.054Z,100149.56
2018-08-04T00:36:58.588Z,100143.83
2018-08-04T00:39:29.169Z,100146.00
2018-08-04T00:41:59.680Z,100138.95
2018-08-04T00:44:30.215Z,100141.17
2018-08-04T00:47:00.921Z,100136.80
2018-08-04T00:49:31.421Z,100140.06
2018-08-04T00:52:02.430Z,100139.22
2018-08-04T00:54:32.804Z,100136.44
2018-08-04T00:57:03.594Z,100137.55
2018-08-04T00:59:33.981Z,100133.21
2018-08-04T01:02:04.370Z,100133.26
2018-08-04T01:04:34.746Z,100133.53
2018-08-04T01:07:05.099Z,100134.64
2018-08-04T01:09:35.482Z,100133.55
2018-08-04T01:12:06.225Z,100132.45
2018-08-04T01:14:36.641Z,100130.01
2018-08-04T01:17:06.999Z,100127.83
2018-08-04T01:19:37.458Z,100122.97
2018-08-04T01:22:07.793Z,100127.91
2018-08-04T01:24:38.257Z,100127.66
2018-08-04T01:27:08.598Z,100126.55
2018-08-04T01:29:39.898Z,100120.06
2018-08-04T01:32:10.258Z,100119.30
2018-08-04T01:34:40.595Z,100111.94
2018-08-04T01:37:11.019Z,100113.88
2018-08-04T01:39:41.354Z,100114.39
2018-08-04T01:42:11.759Z,100113.30
2018-08-04T01:44:42.091Z,100111.08
2018-08-04T01:47:12.659Z,100110.23
2018-08-04T01:49:42.137Z,100109.67
2018-08-04T01:52:11.897Z,100106.39
2018-08-04T01:54:41.665Z,100108.86
2018-08-04T01:57:11.477Z,100109.69
2018-08-04T01:59:41.881Z,100108.05
2018-08-04T02:02:11.692Z,100110.52
2018-08-04T02:04:41.471Z,100100.42
2018-08-04T02:07:11.274Z,100105.61
2018-08-04T02:09:41.088Z,100106.17
2018-08-04T02:12:11.491Z,100096.36
2018-08-04T02:14:41.819Z,100090.91
2018-08-04T02:17:11.611Z,100101.28
2018-08-04T02:19:41.386Z,100103.70
2018-08-04T02:22:11.531Z,100100.17
2018-08-04T02:24:41.307Z,100103.14
2018-08-04T02:27:11.113Z,100097.97
2018-08-04T02:29:40.916Z,100096.89
2018-08-04T02:32:11.278Z,100098.80
2018-08-04T02:34:41.066Z,100095.57
2018-08-04T02:37:10.849Z,100089.85
2018-08-04T02:39:40.647Z,100091.52
2018-08-04T02:42:11.046Z,100091.24
2018-08-04T02:44:41.387Z,100095.34
2018-08-04T02:47:11.832Z,100094.82
2018-08-04T02:49:42.192Z,100090.52
2018-08-04T02:52:12.664Z,100086.43
2018-08-04T02:54:43.087Z,100086.92
2018-08-04T02:57:13.495Z,100088.34
2018-08-04T02:59:43.881Z,100084.51
2018-08-04T03:02:14.269Z,100087.83
2018-08-04T03:04:44.755Z,100086.48
2018-08-04T03:07:15.169Z,100085.68
2018-08-04T03:09:45.520Z,100085.43
2018-08-04T03:12:15.290Z,100085.96
2018-08-04T03:14:45.057Z,100085.68
2018-08-04T03:17:14.829Z,100083.51
2018-08-04T03:19:44.672Z,100086.77
2018-08-04T03:22:14.167Z,100086.79
2018-08-04T03:24:44.194Z,100078.08
2018-08-04T03:27:14.020Z,100085.15
2018-08-04T03:29:43.784Z,100081.63
2018-08-04T03:32:13.623Z,100082.44
2018-08-04T03:34:43.362Z,100079.17
2018-08-04T03:37:13.256Z,100082.44
2018-08-04T03:39:43.600Z,100079.17
2018-08-04T03:42:13.806Z,100081.61
2018-08-04T03:44:43.611Z,100084.87
2018-08-04T03:47:13.443Z,100083.52
2018-08-04T03:49:43.260Z,100083.25
2018-08-04T03:52:13.020Z,100081.34
2018-08-04T03:54:43.365Z,100081.89
2018-08-04T03:57:13.171Z,100078.31
2018-08-04T03:59:42.989Z,100078.31
2018-08-04T04:02:12.972Z,100081.58
2018-08-04T04:04:42.750Z,100085.92
2018-08-04T04:07:12.504Z,100087.53
2018-08-04T04:09:42.362Z,100085.30
2018-08-04T04:12:12.138Z,100085.56
2018-08-04T04:14:41.974Z,100083.92
2018-08-04T04:17:11.843Z,100086.03
2018-08-04T04:19:41.575Z,100087.06
2018-08-04T04:22:11.379Z,100088.97
2018-08-04T04:24:41.743Z,100083.67
2018-08-04T04:27:11.864Z,100088.95
2018-08-04T04:29:41.618Z,100085.02
2018-08-04T04:32:12.113Z,100090.66
2018-08-04T04:34:42.488Z,100090.54
2018-08-04T04:37:12.873Z,100093.10
2018-08-04T04:39:43.306Z,100090.19
2018-08-04T04:42:13.689Z,100086.89
2018-08-04T04:44:43.812Z,100084.30
2018-08-04T04:47:14.171Z,100082.33
2018-08-04T04:49:44.507Z,100092.57
2018-08-04T04:52:14.910Z,100084.98
2018-08-04T04:54:45.304Z,100090.41
2018-08-04T04:57:15.758Z,100087.50
2018-08-04T04:59:46.093Z,100090.57
2018-08-04T05:02:16.590Z,100095.34
2018-08-04T05:04:46.931Z,100090.33
2018-08-04T05:07:17.332Z,100092.08
2018-08-04T05:09:47.735Z,100092.44
2018-08-04T05:12:18.140Z,100088.88
2018-08-04T05:14:48.499Z,100100.31
2018-08-04T05:17:18.898Z,100090.38
2018-08-04T05:19:49.266Z,100093.41
2018-08-04T05:22:19.581Z,100094.00
2018-08-04T05:24:50.383Z,100095.49
2018-08-04T05:27:20.704Z,100102.58
2018-08-04T05:29:51.303Z,100085.86
2018-08-04T05:32:21.674Z,100087.84
2018-08-04T05:34:52.226Z,100088.91
2018-08-04T05:37:22.619Z,100088.70
2018-08-04T05:39:53.545Z,100095.09
2018-08-04T05:42:23.914Z,100102.35
2018-08-04T05:44:54.371Z,100099.95
2018-08-04T05:47:24.827Z,100106.82
2018-08-04T05:49:55.130Z,100105.90
2018-08-04T05:52:25.158Z,100106.20
2018-08-04T05:54:55.395Z,100105.94
2018-08-04T05:57:25.440Z,100102.16
2018-08-04T05:59:55.502Z,100103.20
2018-08-04T06:02:25.624Z,100092.63
2018-08-04T06:04:55.381Z,100094.44
2018-08-04T06:07:25.483Z,100095.56
2018-08-04T06:09:55.560Z,100093.77
2018-08-04T06:12:25.654Z,100096.98
2018-08-04T06:14:55.753Z,100095.41
2018-08-04T06:17:26.134Z,100090.64
2018-08-04T06:19:56.233Z,100090.32
2018-08-04T06:22:26.310Z,100099.58
2018-08-04T06:24:56.411Z,100095.53
2018-08-04T06:27:26.490Z,100091.48
2018-08-04T06:29:56.622Z,100092.59
2018-08-04T06:32:26.824Z,100093.03
2018-08-04T06:34:56.925Z,100088.34
2018-08-04T06:37:27.076Z,100087.84
2018-08-04T06:39:57.788Z,100096.39
2018-08-04T06:42:27.881Z,100095.14
2018-08-04T06:44:57.953Z,100095.81
2018-08-04T06:47:28.046Z,100093.48
2018-08-04T06:49:58.300Z,100089.95
2018-08-04T06:52:28.401Z,100086.47
2018-08-04T06:54:58.258Z,100086.69
2018-08-04T06:57:28.353Z,100086.84
2018-08-04T06:59:58.426Z,100080.33
2018-08-04T07:02:28.630Z,100079.91
2018-08-04T07:04:58.698Z,100084.34
2018-08-04T07:07:28.818Z,100080.75
2018-08-04T07:09:58.919Z,100081.02
2018-08-04T07:12:29.045Z,100078.02
2018-08-04T07:14:59.128Z,100082.58
2018-08-04T07:17:29.229Z,100075.09
2018-08-04T07:19:59.297Z,100069.39
2018-08-04T07:22:29.574Z,100082.58
2018-08-04T07:24:59.732Z,100073.41
2018-08-04T07:27:29.813Z,100074.37
2018-08-04T07:29:59.997Z,100077.94
2018-08-04T07:32:30.174Z,100077.78
2018-08-04T07:35:00.381Z,100080.89
2018-08-04T07:37:30.468Z,100089.19
2018-08-04T07:40:00.625Z,100083.86
2018-08-04T07:42:30.711Z,100090.20
2018-08-04T07:45:00.924Z,100082.22
2018-08-04T07:47:31.066Z,100081.10
2018-08-04T07:50:01.901Z,100079.06
2018-08-04T07:52:32.694Z,100072.94
2018-08-04T07:55:02.987Z,100073.53
2018-08-04T07:57:33.101Z,100076.02
2018-08-04T08:00:03.882Z,100084.56
2018-08-04T08:02:33.961Z,100085.81
2018-08-04T08:05:04.132Z,100092.06
2018-08-04T08:07:34.424Z,100096.16
2018-08-04T08:10:05.549Z,100088.75
2018-08-04T08:12:36.007Z,100084.87
2018-08-04T08:15:08.189Z,100083.12
2018-08-04T08:17:38.304Z,100083.41
2018-08-04T08:20:08.468Z,100079.09
2018-08-04T08:22:42.833Z,100080.37
2018-08-04T08:25:12.713Z,100077.98
2018-08-04T08:27:43.799Z,100083.52
2018-08-04T08:30:14.942Z,100082.88
2018-08-04T08:32:45.049Z,100071.56
2018-08-04T08:35:15.562Z,100071.95
2018-08-04T08:37:46.014Z,100069.05
2018-08-04T08:40:16.035Z,100072.73
2018-08-04T08:42:46.071Z,100069.82
2018-08-04T08:45:16.145Z,100062.46
2018-08-04T08:47:45.989Z,100077.79
2018-08-04T08:50:16.234Z,100069.75
2018-08-04T08:52:46.277Z,100067.03
2018-08-04T08:55:16.310Z,100067.06
2018-08-04T08:57:46.373Z,100064.34
2018-08-04T09:00:16.453Z,100071.30
2018-08-04T09:02:46.541Z,100067.94
2018-08-04T09:05:16.775Z,100069.11
2018-08-04T09:07:46.806Z,100081.25
2018-08-04T09:10:16.929Z,100090.31
2018-08-04T09:12:46.950Z,100084.66
2018-08-04T09:15:17.381Z,100089.02
2018-08-04T09:17:47.404Z,100083.45
2018-08-04T09:20:17.771Z,100080.98
2018-08-04T09:22:47.834Z,100081.27
2018-08-04T09:25:18.255Z,100088.48
2018-08-04T09:27:48.746Z,100090.05
2018-08-04T09:30:19.116Z,100084.26
2018-08-04T09:32:49.467Z,100084.28
2018-08-04T09:35:19.815Z,100081.52
2018-08-04T09:37:50.974Z,100088.77
2018-08-04T09:40:21.362Z,100084.41
2018-08-04T09:42:51.834Z,100072.02
2018-08-04T09:45:22.250Z,100067.38
2018-08-04T09:47:52.829Z,100069.73
2018-08-04T09:50:23.790Z,100070.66
2018-08-04T09:52:54.308Z,100063.80
2018-08-04T09:55:24.731Z,100055.18
2018-08-04T09:57:55.200Z,100058.37
2018-08-04T10:00:30.732Z,100053.73
2018-08-04T10:03:01.367Z,100068.16
2018-08-04T10:05:31.727Z,100063.20
2018-08-04T10:08:02.537Z,100063.98
2018-08-04T10:10:33.015Z,100046.18
2018-08-04T10:13:03.994Z,100045.47
2018-08-04T10:15:34.630Z,100049.02
2018-08-04T10:18:05.404Z,100038.56
2018-08-04T10:20:36.383Z,100034.27
2018-08-04T10:23:06.861Z,100038.16
2018-08-04T10:25:37.990Z,100036.81
2018-08-04T10:28:08.422Z,100031.92
2018-08-04T10:30:38.870Z,100037.23
2018-08-04T10:33:09.349Z,100048.78
2018-08-04T10:35:40.916Z,100053.69
2018-08-04T10:38:12.849Z,100056.84
2018-08-04T10:40:45.355Z,100056.31
2018-08-04T10:43:15.772Z,100049.67
2018-08-04T10:45:46.419Z,100040.74
2018-08-04T10:48:17.712Z,100032.11
2018-08-04T10:50:48.308Z,100032.96
2018-08-04T10:53:18.525Z,100031.11
2018-08-04T10:55:48.927Z,100028.05
2018-08-04T10:58:19.755Z,100027.08
2018-08-04T11:00:50.079Z,100032.06
2018-08-04T11:03:20.538Z,100027.33
2018-08-04T11:05:50.644Z,100022.22
2018-08-04T11:08:21.059Z,100025.08
2018-08-04T11:10:51.499Z,100028.53
2018-08-04T11:13:21.748Z,100018.20
2018-08-04T11:15:53.054Z,100021.94
2018-08-04T11:18:24.015Z,100014.51
2018-08-04T11:20:54.552Z,100014.28
2018-08-04T11:23:24.700Z,100014.78
2018-08-04T11:25:55.009Z,100006.93
2018-08-04T11:28:25.172Z,100004.31
2018-08-04T11:30:55.744Z,100007.81
2018-08-04T11:33:26.624Z,100007.04
2018-08-04T11:35:57.413Z,100014.39
2018-08-04T11:38:27.527Z,100008.95
2018-08-04T11:40:58.090Z,100004.45
2018-08-04T11:43:28.618Z,100012.22
2018-08-04T11:45:59.096Z,100013.86
2018-08-04T11:48:29.783Z,100019.69
2018-08-04T11:51:00.435Z,100023.39
2018-08-04T11:53:31.098Z,100021.06
2018-08-04T11:56:01.387Z,100015.67
2018-08-04T11:58:31.633Z,100003.52
2018-08-04T12:01:02.363Z,100005.93
2018-08-04T12:03:32.522Z,99999.27
2018-08-04T12:06:02.915Z,100000.42
2018-08-04T12:08:33.034Z,99997.52
2018-08-04T12:11:03.513Z,99994.06
2018-08-04T12:13:34.147Z,99986.23
2018-08-04T12:16:04.307Z,99985.08
2018-08-04T12:18:34.449Z,99982.89
2018-08-04T12:21:04.622Z,99977.05
2018-08-04T12:23:34.734Z,99976.92
2018-08-04T12:26:05.162Z,99973.81
2018-08-04T12:28:35.245Z,99972.31
2018-08-04T12:31:05.383Z,99978.08
2018-08-04T12:33:35.451Z,99968.52
2018-08-04T12:36:05.749Z,99968.22
2018-08-04T12:38:35.862Z,99963.47
2018-08-04T12:41:06.242Z,99958.93
2018-08-04T12:43:36.453Z,99958.22
2018-08-04T12:46:06.891Z,99960.41
2018-08-04T12:48:37.290Z,99961.97
2018-08-04T12:51:07.504Z,99969.54
2018-08-04T12:53:37.647Z,99956.50
2018-08-04T12:56:07.766Z,99954.17
2018-08-04T12:58:37.842Z,99957.41
2018-08-04T13:01:07.991Z,99957.95
2018-08-04T13:03:38.122Z,99963.69
2018-08-04T13:06:08.293Z,99957.05
2018-08-04T13:08:38.445Z,99963.09
2018-08-04T13:11:09.121Z,99959.62
2018-08-04T13:13:39.205Z,99956.46
2018-08-04T13:16:09.342Z,99956.22
2018-08-04T13:18:39.458Z,99952.98
2018-08-04T13:21:10.072Z,99950.09
2018-08-04T13:23:40.243Z,99945.83
2018-08-04T13:26:10.654Z,99936.48
2018-08-04T13:28:40.829Z,99930.69
2018-08-04T13:31:10.916Z,99927.36
2018-08-04T13:33:41.040Z,99925.56
2018-08-04T13:36:11.166Z,99920.97
2018-08-04T13:38:41.455Z,99918.39
2018-08-04T13:41:11.978Z,99912.84
2018-08-04T13:43:42.044Z,99909.61
2018-08-04T13:46:12.161Z,99908.44
2018-08-04T13:48:42.349Z,99903.19
2018-08-04T13:51:12.668Z,99901.63
2018-08-04T13:53:42.843Z,99896.86
2018-08-04T13:56:13.065Z,99893.13
2018-08-04T13:58:43.980Z,99884.16
2018-08-04T14:01:14.181Z,99887.43
2018-08-04T14:03:44.301Z,99890.77
2018-08-04T14:06:14.476Z,99885.95
2018-08-04T14:08:44.660Z,99876.38
2018-08-04T14:11:15.031Z,99879.06
2018-08-04T14:13:45.194Z,99874.97
2018-08-04T14:16:15.321Z,99869.95
2018-08-04T14:18:46.146Z,99871.11
2018-08-04T14:21:16.822Z,99867.53
2018-08-04T14:23:47.982Z,99869.27
2018-08-04T14:26:18.156Z,99870.07
2018-08-04T14:28:48.276Z,99869.19
2018-08-04T14:31:19.019Z,99870.87
2018-08-04T14:33:49.203Z,99864.54
2018-08-04T14:36:19.948Z,99856.64
2018-08-04T14:38:50.080Z,99853.45
2018-08-04T14:41:20.172Z,99850.01
2018-08-04T14:43:50.374Z,99844.76
2018-08-04T14:46:20.707Z,99842.55
2018-08-04T14:48:50.783Z,99848.77
2018-08-04T14:51:21.014Z,99841.00
2018-08-04T14:53:51.086Z,99835.53
2018-08-04T14:56:21.188Z,99833.18
2018-08-04T14:58:51.270Z,99826.86
2018-08-04T15:01:21.374Z,99823.27
2018-08-04T15:03:51.507Z,99819.70
2018-08-04T15:06:21.674Z,99818.76
2018-08-04T15:08:52.050Z,99818.83
2018-08-04T15:11:22.224Z,99819.22
2018-08-04T15:13:53.132Z,99820.77
2018-08-04T15:16:23.259Z,99816.27
2018-08-04T15:18:53.702Z,99817.66
2018-08-04T15:21:24.057Z,99824.86
2018-08-04T15:23:54.142Z,99818.95
2018-08-04T15:26:24.440Z,99819.46
2018-08-04T15:28:54.623Z,99821.58
2018-08-04T15:31:24.679Z,99823.02
2018-08-04T15:33:55.100Z,99815.06
2018-08-04T15:36:25.537Z,99824.53
2018-08-04T15:38:55.648Z,99818.89
2018-08-04T15:41:25.764Z,99817.48
2018-08-04T15:43:55.846Z,99814.13
2018-08-04T15:46:26.052Z,99814.24
2018-08-04T15:48:56.125Z,99813.53
2018-08-04T15:51:26.324Z,99810.22
2018-08-04T15:53:56.498Z,99817.50
2018-08-04T15:56:26.600Z,99816.11
2018-08-04T15:58:56.726Z,99831.61
2018-08-04T16:01:27.032Z,99833.46
2018-08-04T16:03:57.129Z,99830.23
2018-08-04T16:06:27.251Z,99826.59
2018-08-04T16:08:57.447Z,99831.11
2018-08-04T16:11:28.935Z,99829.45
2018-08-04T16:13:59.113Z,99831.81
2018-08-04T16:16:29.274Z,99837.69
2018-08-04T16:18:59.449Z,99837.19
2018-08-04T16:21:29.613Z,99836.00
2018-08-04T16:23:59.809Z,99834.05
2018-08-04T16:26:30.333Z,99826.70
2018-08-04T16:29:00.532Z,99830.02
2018-08-04T16:31:30.619Z,99829.44
2018-08-04T16:34:01.420Z,99830.50
2018-08-04T16:36:31.854Z,99833.13
2018-08-04T16:39:02.379Z,99831.08
2018-08-04T16:41:33.039Z,99828.09
2018-08-04T16:44:04.084Z,99833.17
2018-08-04T16:46:34.187Z,99824.88
2018-08-04T16:49:04.788Z,99818.78
2018-08-04T16:51:34.967Z,99820.06
2018-08-04T16:54:05.140Z,99824.78
2018-08-04T16:56:35.311Z,99827.67
2018-08-04T16:59:05.489Z,99822.02
2018-08-04T17:01:36.405Z,99823.42
2018-08-04T17:04:06.660Z,99824.89
2018-08-04T17:06:36.880Z,99832.02
2018-08-04T17:09:10.351Z,99821.30
2018-08-04T17:11:40.583Z,99810.71
2018-08-04T17:14:10.711Z,99806.67
2018-08-04T17:16:40.835Z,99808.23
2018-08-04T17:19:10.905Z,99814.08
2018-08-04T17:21:41.061Z,99819.91
2018-08-04T17:24:11.142Z,99821.61
2018-08-04T17:26:41.383Z,99819.39
2018-08-04T17:29:11.676Z,99816.90
2018-08-04T17:31:42.127Z,99817.98
2018-08-04T17:34:12.482Z,99815.48
2018-08-04T17:36:42.634Z,99802.48
2018-08-04T17:39:12.793Z,99796.83
2018-08-04T17:41:42.953Z,99795.78
2018-08-04T17:44:13.098Z,99798.80
2018-08-04T17:46:43.319Z,99800.70
2018-08-04T17:49:13.482Z,99791.92
2018-08-04T17:51:43.780Z,99777.88
2018-08-04T17:54:13.979Z,99773.52
2018-08-04T17:56:44.560Z,99768.55
2018-08-04T17:59:14.863Z,99772.16
2018-08-04T18:01:45.177Z,99791.77
2018-08-04T18:04:15.462Z,99795.89
2018-08-04T18:06:46.024Z,99804.95
2018-08-04T18:09:16.317Z,99804.95
2018-08-04T18:11:46.401Z,99807.95
2018-08-04T18:14:16.555Z,99801.28
2018-08-04T18:16:46.654Z,99801.58
2018-08-04T18:19:16.794Z,99806.65
2018-08-04T18:21:47.148Z,99812.20
2018-08-04T18:24:17.242Z,99810.54
2018-08-04T18:26:47.523Z,99817.34
2018-08-04T18:29:19.568Z,99819.45
2018-08-04T18:31:50.075Z,99825.58
2018-08-04T18:34:20.173Z,99833.02
2018-08-04T18:36:50.317Z,99834.14
2018-08-04T18:39:20.410Z,99828.89
2018-08-04T18:41:50.519Z,99829.22
2018-08-04T18:44:20.899Z,99827.13
2018-08-04T18:46:51.014Z,99832.05
2018-08-04T18:49:21.589Z,99837.28
2018-08-04T18:51:52.109Z,99836.06
2018-08-04T18:54:22.267Z,99837.56
2018-08-04T18:56:52.854Z,99844.56
2018-08-04T18:59:22.966Z,99844.32
2018-08-04T19:01:53.131Z,99846.08
2018-08-04T19:04:24.159Z,99837.47
2018-08-04T19:06:54.774Z,99843.86
2018-08-04T19:09:24.897Z,99839.70
2018-08-04T19:11:55.719Z,99835.39
2018-08-04T19:14:26.123Z,99834.97
2018-08-04T19:16:56.244Z,99834.26
2018-08-04T19:19:26.353Z,99834.48
2018-08-04T19:21:56.419Z,99845.03
2018-08-04T19:24:26.482Z,99846.16
2018-08-04T19:26:56.903Z,99830.11
2018-08-04T19:29:27.015Z,99835.84
2018-08-04T19:31:57.153Z,99836.72
2018-08-04T19:34:27.229Z,99839.26
2018-08-04T19:36:57.299Z,99833.16
2018-08-04T19:39:27.418Z,99839.03
2018-08-04T19:41:57.915Z,99829.00
2018-08-04T19:44:28.595Z,99830.76
2018-08-04T19:46:58.981Z,99828.83
2018-08-04T19:49:29.139Z,99826.16
2018-08-04T19:52:00.605Z,99825.28
2018-08-04T19:54:34.853Z,99829.14
2018-08-04T19:57:05.135Z,99828.13
2018-08-04T19:59:36.144Z,99824.89
2018-08-04T20:02:06.484Z,99827.27
2018-08-04T20:04:36.738Z,99830.12
2018-08-04T20:07:06.906Z,99830.89
2018-08-04T20:09:37.052Z,99832.63
2018-08-04T20:12:07.596Z,99833.70
2018-08-04T20:14:37.729Z,99824.02
2018-08-04T20:17:08.601Z,99827.98
2018-08-04T20:19:39.295Z,99823.24
2018-08-04T20:22:14.177Z,99820.75
2018-08-04T20:24:44.842Z,99814.56
2018-08-04T20:27:16.131Z,99815.98
2018-08-04T20:29:46.371Z,99815.50
2018-08-04T20:32:17.329Z,99808.69
2018-08-04T20:34:47.868Z,99804.74
2018-08-04T20:37:18.046Z,99796.44
2018-08-04T20:39:48.219Z,99798.12
2018-08-04T20:42:18.348Z,99794.33
2018-08-04T20:44:48.779Z,99793.70
2018-08-04T20:47:19.001Z,99807.48
2018-08-04T20:49:49.390Z,99799.92
2018-08-04T20:52:19.748Z,99802.87
2018-08-04T20:54:49.854Z,99801.80
2018-08-04T20:57:19.965Z,99800.98
2018-08-04T20:59:50.895Z,99802.06
2018-08-04T21:02:21.208Z,99801.29
2018-08-04T21:04:51.275Z,99797.93
2018-08-04T21:07:21.511Z,99799.30
2018-08-04T21:09:51.625Z,99791.56
2018-08-04T21:12:21.896Z,99794.27
2018-08-04T21:14:51.987Z,99799.36
2018-08-04T21:17:22.096Z,99798.92
2018-08-04T21:19:52.213Z,99795.18
2018-08-04T21:22:22.339Z,99794.03
2018-08-04T21:24:52.586Z,99791.28
2018-08-04T21:27:22.876Z,99799.67
2018-08-04T21:29:52.972Z,99798.45
2018-08-04T21:32:23.090Z,99798.23
2018-08-04T21:34:53.556Z,99796.58
2018-08-04T21:37:24.926Z,99800.73
2018-08-04T21:39:55.665Z,99795.09
2018-08-04T21:42:25.806Z,99802.87
2018-08-04T21:44:56.220Z,99796.11
2018-08-04T21:47:26.583Z,99794.02
2018-08-04T21:49:56.681Z,99793.41
2018-08-04T21:52:27.295Z,99789.29
2018-08-04T21:54:58.148Z,99788.38
2018-08-04T21:57:28.246Z,99795.63
2018-08-04T21:59:58.753Z,99796.07
2018-08-04T22:02:28.932Z,99791.52
2018-08-04T22:04:59.219Z,99796.48
2018-08-04T22:07:41.942Z,99796.06
2018-08-04T22:10:13.246Z,99794.70
2018-08-04T22:12:43.940Z,99795.05
2018-08-04T22:15:15.132Z,99793.72
2018-08-04T22:17:45.410Z,99794.20
2018-08-04T22:20:17.295Z,99797.44
2018-08-04T22:22:47.720Z,99798.53
2018-08-04T22:25:19.117Z,99798.55
2018-08-04T22:27:49.405Z,99797.98
2018-08-04T22:30:21.475Z,99804.41
2018-08-04T22:32:52.097Z,99803.99
2018-08-04T22:35:22.795Z,99795.91
2018-08-04T22:37:52.908Z,99795.06
2018-08-04T22:40:24.012Z,99789.97
2018-08-04T22:42:54.403Z,99791.77
2018-08-04T22:46:27.946Z,99793.90
2018-08-04T22:48:58.705Z,99794.91
2018-08-04T22:51:29.554Z,99798.62
2018-08-04T22:53:59.797Z,99798.91
2018-08-04T22:56:30.159Z,99807.62
2018-08-04T22:59:00.302Z,99795.63
2018-08-04T23:01:30.769Z,99807.48
2018-08-04T23:04:00.908Z,99813.78
2018-08-04T23:06:31.050Z,99816.64
2018-08-04T23:09:01.175Z,99822.05
2018-08-04T23:11:31.735Z,99827.45
2018-08-04T23:14:02.983Z,99834.06
2018-08-04T23:16:33.185Z,99834.06
2018-08-04T23:19:05.238Z,99830.90
2018-08-04T23:21:39.838Z,99823.19
2018-08-04T23:24:10.042Z,99826.06
2018-08-04T23:26:40.486Z,99829.11
2018-08-04T23:29:11.426Z,99825.33
2018-08-04T23:31:42.063Z,99828.08
2018-08-04T23:34:12.132Z,99821.53
2018-08-04T23:36:42.360Z,99817.67
2018-08-04T23:39:12.675Z,99818.73
2018-08-04T23:41:43.560Z,99819.63
2018-08-04T23:44:14.184Z,99813.03
2018-08-04T23:46:44.665Z,99810.13
2018-08-04T23:49:15.547Z,99812.63
2018-08-04T23:51:46.077Z,99812.73
2018-08-04T23:54:16.289Z,99813.05
2018-08-04T23:56:46.539Z,99815.74
2018-08-04T23:59:16.871Z,99810.16
